Time;durP1;ratioP1;P1;durP2;ratioP2;P2;SDS_P1;SDS_P2;PMS_P1;PMS_P2;Temp;Humidity;BMP_temperature;BMP_pressure;BME280_temperature;BME280_humidity;BME280_pressure;Samples;Min_cycle;Max_cycle;Signal;HPM_P1;HPM_P2
2022/11/28 00:00:18;;;;;;;82.82;36.53;;;;;;;;;;5066477;28;20027;-62
2022/11/28 00:02:44;;;;;;;90.45;37.78;;;;;;;;;;5056788;28;20037;-62
2022/11/28 00:05:11;;;;;;;88.03;38.65;;;;;;;;;;5053470;28;20071;-62
2022/11/28 00:07:37;;;;;;;88.75;38.65;;;;;;;;;;5053478;28;20058;-62
2022/11/28 00:10:04;;;;;;;97.38;40.97;;;;;;;;;;5053619;28;20568;-63
2022/11/28 00:12:30;;;;;;;97.13;41.53;;;;;;;;;;5053568;28;20036;-67
2022/11/28 00:14:56;;;;;;;97.00;41.40;;;;;;;;;;5053253;28;20100;-62
2022/11/28 00:17:22;;;;;;;83.82;37.40;;;;;;;;;;5053114;28;20024;-63
2022/11/28 00:19:48;;;;;;;86.47;37.17;;;;;;;;;;5053151;28;20028;-63
2022/11/28 00:22:14;;;;;;;86.70;37.58;;;;;;;;;;5053018;28;20028;-63
2022/11/28 00:24:40;;;;;;;76.75;34.35;;;;;;;;;;5053475;28;20163;-64
2022/11/28 00:27:06;;;;;;;82.40;36.70;;;;;;;;;;5053217;28;20025;-63
2022/11/28 00:29:32;;;;;;;77.95;35.22;;;;;;;;;;5053217;28;20095;-62
2022/11/28 00:31:58;;;;;;;76.40;34.50;;;;;;;;;;5053089;28;20072;-63
2022/11/28 00:34:24;;;;;;;81.55;34.58;;;;;;;;;;5053144;28;20025;-63
2022/11/28 00:36:50;;;;;;;79.90;36.33;;;;;;;;;;5052469;28;20025;-63
2022/11/28 00:39:16;;;;;;;78.22;34.50;;;;;;;;;;5053060;28;20021;-63
2022/11/28 00:41:42;;;;;;;81.22;35.40;;;;;;;;;;5053108;28;20438;-63
2022/11/28 00:44:09;;;;;;;89.72;39.75;;;;;;;;;;5053054;28;20021;-67
2022/11/28 00:46:35;;;;;;;86.13;38.50;;;;;;;;;;5052725;28;20389;-63
2022/11/28 00:49:01;;;;;;;76.63;34.10;;;;;;;;;;5052907;28;20063;-63
2022/11/28 00:51:29;;;;;;;85.80;35.45;;;;;;;;;;5052290;28;20057;-63
2022/11/28 00:53:56;;;;;;;84.70;35.97;;;;;;;;;;5052710;28;20028;-66
2022/11/28 00:56:24;;;;;;;83.05;36.85;;;;;;;;;;5052807;28;20063;-66
2022/11/28 00:58:50;;;;;;;89.05;37.63;;;;;;;;;;5052539;28;20353;-63
2022/11/28 01:01:18;;;;;;;83.07;36.25;;;;;;;;;;5052643;28;20057;-63
2022/11/28 01:03:44;;;;;;;77.05;36.20;;;;;;;;;;5051096;28;20064;-63
2022/11/28 01:06:11;;;;;;;77.90;34.83;;;;;;;;;;5051299;28;20083;-63
2022/11/28 01:08:37;;;;;;;76.57;35.35;;;;;;;;;;5052644;28;20035;-63
2022/11/28 01:11:03;;;;;;;80.22;35.88;;;;;;;;;;5052077;28;20043;-64
2022/11/28 01:13:29;;;;;;;80.78;36.38;;;;;;;;;;5051445;28;20491;-64
2022/11/28 01:15:57;;;;;;;85.72;37.80;;;;;;;;;;5052373;28;20485;-63
2022/11/28 01:18:23;;;;;;;85.00;36.97;;;;;;;;;;5052187;28;20432;-63
2022/11/28 01:20:49;;;;;;;83.10;34.05;;;;;;;;;;5052039;28;20116;-63
2022/11/28 01:23:17;;;;;;;85.00;35.33;;;;;;;;;;5052269;28;20128;-63
2022/11/28 01:25:43;;;;;;;84.80;33.88;;;;;;;;;;5051640;28;20024;-63
2022/11/28 01:28:09;;;;;;;76.50;32.75;;;;;;;;;;5051535;28;20578;-63
2022/11/28 01:30:35;;;;;;;73.22;33.10;;;;;;;;;;5052011;28;20041;-63
2022/11/28 01:33:01;;;;;;;79.22;33.40;;;;;;;;;;5051740;28;20021;-63
2022/11/28 01:35:27;;;;;;;77.53;32.80;;;;;;;;;;5051592;28;20021;-63
2022/11/28 01:37:53;;;;;;;81.65;33.92;;;;;;;;;;5051549;28;20515;-63
2022/11/28 01:40:19;;;;;;;80.55;33.22;;;;;;;;;;5051502;28;20032;-63
2022/11/28 01:42:45;;;;;;;80.35;31.75;;;;;;;;;;5051886;28;20021;-63
2022/11/28 01:45:13;;;;;;;85.47;33.47;;;;;;;;;;5051780;28;20041;-62
2022/11/28 01:47:40;;;;;;;75.22;31.55;;;;;;;;;;5051087;28;20114;-62
2022/11/28 01:50:06;;;;;;;78.38;30.48;;;;;;;;;;5051005;28;20408;-63
2022/11/28 01:52:33;;;;;;;78.75;31.83;;;;;;;;;;5051437;28;20025;-62
2022/11/28 01:55:00;;;;;;;79.85;32.53;;;;;;;;;;5051659;28;20017;-63
2022/11/28 01:57:27;;;;;;;74.25;31.27;;;;;;;;;;5051758;28;20139;-62
2022/11/28 01:59:59;;;;;;;78.93;32.00;;;;;;;;;;5051472;28;20526;-63
2022/11/28 02:02:38;;;;;;;79.05;33.28;;;;;;;;;;5051540;28;20025;-62
2022/11/28 02:05:05;;;;;;;75.30;31.52;;;;;;;;;;5051065;28;20039;-63
2022/11/28 02:07:32;;;;;;;78.03;31.23;;;;;;;;;;5051545;28;20054;-63
2022/11/28 02:09:59;;;;;;;79.15;31.85;;;;;;;;;;5051330;28;20481;-63
2022/11/28 02:12:28;;;;;;;81.57;31.45;;;;;;;;;;5051458;28;20086;-63
2022/11/28 02:15:07;;;;;;;84.70;31.83;;;;;;;;;;5051046;28;20476;-63
2022/11/28 02:17:52;;;;;;;86.93;33.90;;;;;;;;;;5051155;28;20033;-63
2022/11/28 02:20:18;;;;;;;78.30;31.83;;;;;;;;;;5051033;28;20033;-62
2022/11/28 02:23:04;;;;;;;86.65;34.13;;;;;;;;;;5051235;28;20664;-62
2022/11/28 02:25:43;;;;;;;92.55;33.58;;;;;;;;;;5050946;28;20483;-63
2022/11/28 02:28:28;;;;;;;84.10;32.22;;;;;;;;;;5051413;28;20021;-62
2022/11/28 02:30:54;;;;;;;82.28;31.80;;;;;;;;;;5051436;28;20041;-70
2022/11/28 02:33:26;;;;;;;84.40;33.50;;;;;;;;;;5051116;28;20087;-69
2022/11/28 02:36:02;;;;;;;76.70;29.50;;;;;;;;;;5051063;28;20040;-65
2022/11/28 02:38:31;;;;;;;67.97;28.45;;;;;;;;;;5050801;28;20013;-66
2022/11/28 02:41:04;;;;;;;58.13;25.80;;;;;;;;;;5051249;28;20035;-63
2022/11/28 02:43:40;;;;;;;59.78;25.67;;;;;;;;;;5050974;28;20029;-67
2022/11/28 02:46:12;;;;;;;59.22;26.35;;;;;;;;;;5050940;28;20033;-63
2022/11/28 02:48:56;;;;;;;60.38;25.45;;;;;;;;;;5051027;28;20109;-64
2022/11/28 02:51:29;;;;;;;60.50;26.20;;;;;;;;;;5050324;28;20061;-61
2022/11/28 02:53:56;;;;;;;59.72;24.10;;;;;;;;;;5051036;28;20396;-61
2022/11/28 02:56:23;;;;;;;55.72;23.88;;;;;;;;;;5050733;28;20419;-64
2022/11/28 02:58:49;;;;;;;63.90;26.00;;;;;;;;;;5050796;28;20053;-63
2022/11/28 03:01:19;;;;;;;58.22;24.65;;;;;;;;;;5051466;28;20146;-63
2022/11/28 03:03:51;;;;;;;59.22;24.75;;;;;;;;;;5052460;28;20025;-61
2022/11/28 03:06:23;;;;;;;53.92;23.35;;;;;;;;;;5049476;28;20104;-64
2022/11/28 03:09:01;;;;;;;54.97;23.95;;;;;;;;;;5050681;28;20473;-69
2022/11/28 03:11:30;;;;;;;51.00;22.13;;;;;;;;;;5050760;28;20069;-63
2022/11/28 03:14:13;;;;;;;54.13;22.70;;;;;;;;;;5050824;28;20060;-63
2022/11/28 03:16:42;;;;;;;57.83;23.55;;;;;;;;;;5050873;28;20021;-63
2022/11/28 03:19:11;;;;;;;56.75;23.75;;;;;;;;;;5050642;28;20052;-63
2022/11/28 03:21:42;;;;;;;65.13;22.70;;;;;;;;;;5050528;28;20029;-65
2022/11/28 03:24:16;;;;;;;62.22;23.92;;;;;;;;;;5049200;28;20427;-63
2022/11/28 03:26:51;;;;;;;56.67;23.50;;;;;;;;;;5050606;28;20545;-63
2022/11/28 03:29:37;;;;;;;68.38;24.27;;;;;;;;;;5050462;28;20465;-68
2022/11/28 03:32:07;;;;;;;58.75;24.00;;;;;;;;;;5050289;28;20037;-63
2022/11/28 03:34:36;;;;;;;59.78;24.77;;;;;;;;;;5050549;28;20044;-63
2022/11/28 03:37:06;;;;;;;82.10;22.73;;;;;;;;;;5051284;28;20029;-62
2022/11/28 03:39:35;;;;;;;60.40;24.00;;;;;;;;;;5054135;28;20025;-63
2022/11/28 03:42:10;;;;;;;74.78;23.77;;;;;;;;;;5053066;28;20117;-62
2022/11/28 03:44:39;;;;;;;56.85;24.08;;;;;;;;;;5054216;28;20106;-69
2022/11/28 03:47:06;;;;;;;61.78;23.83;;;;;;;;;;5054285;28;20045;-68
2022/11/28 03:49:34;;;;;;;77.00;23.55;;;;;;;;;;5053758;28;21153;-63
2022/11/28 03:52:10;;;;;;;65.47;25.27;;;;;;;;;;5054137;28;20848;-61
2022/11/28 03:54:42;;;;;;;60.17;24.70;;;;;;;;;;5054140;28;20163;-63
2022/11/28 03:57:12;;;;;;;75.93;22.25;;;;;;;;;;5053911;28;20033;-63
2022/11/28 03:59:42;;;;;;;116.38;23.33;;;;;;;;;;5053706;28;20136;-64
2022/11/28 04:02:21;;;;;;;59.78;22.98;;;;;;;;;;5053761;28;20028;-69
2022/11/28 04:05:02;;;;;;;55.97;23.20;;;;;;;;;;5053828;28;20081;-62
2022/11/28 04:07:36;;;;;;;52.33;22.50;;;;;;;;;;5053722;28;20047;-63
2022/11/28 04:10:12;;;;;;;54.70;22.98;;;;;;;;;;5053901;28;20029;-63
2022/11/28 04:12:54;;;;;;;66.18;23.77;;;;;;;;;;5053811;28;20039;-63
2022/11/28 04:15:20;;;;;;;56.63;23.30;;;;;;;;;;5053593;28;20028;-64
2022/11/28 04:17:51;;;;;;;68.93;25.35;;;;;;;;;;5053315;28;20164;-68
2022/11/28 04:20:30;;;;;;;64.85;25.23;;;;;;;;;;5052656;28;20036;-63
2022/11/28 04:22:59;;;;;;;60.58;24.15;;;;;;;;;;5053269;28;20128;-63
2022/11/28 04:25:25;;;;;;;74.18;25.50;;;;;;;;;;5053246;28;20028;-70
2022/11/28 04:27:58;;;;;;;62.67;25.75;;;;;;;;;;5053008;28;20024;-63
2022/11/28 04:30:24;;;;;;;64.72;24.92;;;;;;;;;;5052966;28;20040;-63
2022/11/28 04:32:54;;;;;;;70.05;26.38;;;;;;;;;;5052843;28;20550;-62
2022/11/28 04:35:24;;;;;;;66.47;26.75;;;;;;;;;;5052786;28;20028;-63
2022/11/28 04:37:51;;;;;;;66.78;26.90;;;;;;;;;;5052946;28;20037;-69
2022/11/28 04:40:18;;;;;;;68.75;27.48;;;;;;;;;;5053020;28;20115;-62
2022/11/28 04:42:55;;;;;;;64.32;25.63;;;;;;;;;;5053040;28;20114;-66
2022/11/28 04:45:24;;;;;;;64.30;25.17;;;;;;;;;;5053039;28;20112;-62
2022/11/28 04:47:50;;;;;;;66.03;26.27;;;;;;;;;;5052606;28;20040;-63
2022/11/28 04:50:16;;;;;;;66.32;27.30;;;;;;;;;;5052473;28;20511;-63
2022/11/28 04:53:04;;;;;;;71.07;27.75;;;;;;;;;;5052546;28;20051;-62
2022/11/28 04:55:33;;;;;;;65.00;26.15;;;;;;;;;;5052700;28;20013;-62
2022/11/28 04:58:06;;;;;;;65.80;27.33;;;;;;;;;;5052940;28;20032;-64
2022/11/28 05:00:33;;;;;;;67.28;25.55;;;;;;;;;;5052405;28;20033;-64
2022/11/28 05:02:59;;;;;;;70.25;25.55;;;;;;;;;;5052284;28;20108;-62
2022/11/28 05:05:27;;;;;;;93.70;28.63;;;;;;;;;;5052131;28;20025;-62
2022/11/28 05:07:53;;;;;;;66.32;27.60;;;;;;;;;;5052226;28;20100;-64
2022/11/28 05:10:19;;;;;;;63.25;26.13;;;;;;;;;;5052274;28;20388;-65
2022/11/28 05:12:46;;;;;;;63.25;26.75;;;;;;;;;;5052303;28;20515;-64
2022/11/28 05:15:12;;;;;;;53.78;24.08;;;;;;;;;;5052287;28;20043;-64
2022/11/28 05:17:38;;;;;;;55.78;24.67;;;;;;;;;;5052062;28;20043;-62
2022/11/28 05:20:05;;;;;;;51.60;23.90;;;;;;;;;;5051848;28;20507;-64
2022/11/28 05:22:31;;;;;;;50.58;23.60;;;;;;;;;;5051856;28;20039;-61
2022/11/28 05:24:57;;;;;;;93.00;24.98;;;;;;;;;;5051749;28;20063;-70
2022/11/28 05:27:23;;;;;;;55.85;24.70;;;;;;;;;;5052113;28;20048;-66
2022/11/28 05:29:50;;;;;;;65.45;26.35;;;;;;;;;;5052009;28;20453;-63
2022/11/28 05:32:16;;;;;;;67.45;26.40;;;;;;;;;;5051740;28;20052;-62
2022/11/28 05:34:42;;;;;;;81.22;25.95;;;;;;;;;;5051528;28;20428;-64
2022/11/28 05:37:08;;;;;;;74.95;28.05;;;;;;;;;;5051625;28;20025;-65
2022/11/28 05:39:34;;;;;;;62.97;26.98;;;;;;;;;;5051339;28;20025;-63
2022/11/28 05:42:00;;;;;;;58.97;25.80;;;;;;;;;;5051590;28;20021;-64
2022/11/28 05:44:26;;;;;;;65.95;25.00;;;;;;;;;;5052021;28;20028;-61
2022/11/28 05:46:52;;;;;;;58.92;23.35;;;;;;;;;;5051468;28;20035;-62
2022/11/28 05:49:20;;;;;;;53.53;23.27;;;;;;;;;;5051323;28;20025;-63
2022/11/28 05:51:47;;;;;;;56.80;23.80;;;;;;;;;;5049574;28;20095;-63
2022/11/28 05:54:13;;;;;;;57.70;24.90;;;;;;;;;;5051201;28;20017;-63
2022/11/28 05:56:39;;;;;;;50.67;21.95;;;;;;;;;;5051397;28;20047;-66
2022/11/28 05:59:05;;;;;;;50.88;21.23;;;;;;;;;;5050862;28;20100;-67
2022/11/28 06:01:31;;;;;;;53.03;22.52;;;;;;;;;;5050056;28;20116;-62
2022/11/28 06:03:58;;;;;;;46.80;21.20;;;;;;;;;;5050949;28;20143;-63
2022/11/28 06:06:25;;;;;;;50.47;21.73;;;;;;;;;;5051045;28;20039;-63
2022/11/28 06:08:52;;;;;;;51.80;21.85;;;;;;;;;;5048584;28;20025;-63
2022/11/28 06:11:18;;;;;;;60.78;24.48;;;;;;;;;;5049711;28;20116;-63
2022/11/28 06:13:45;;;;;;;65.88;23.80;;;;;;;;;;5050891;28;20171;-64
2022/11/28 06:16:13;;;;;;;61.40;22.25;;;;;;;;;;5051017;28;20040;-66
2022/11/28 06:18:39;;;;;;;73.25;24.50;;;;;;;;;;5050985;28;20017;-62
2022/11/28 06:21:06;;;;;;;61.05;26.08;;;;;;;;;;5050691;28;20037;-65
2022/11/28 06:23:32;;;;;;;61.92;25.98;;;;;;;;;;5050405;28;20079;-61
2022/11/28 06:26:03;;;;;;;59.70;26.23;;;;;;;;;;5049966;28;20033;-62
2022/11/28 06:28:29;;;;;;;61.20;26.55;;;;;;;;;;5050797;28;20031;-62
2022/11/28 06:30:55;;;;;;;69.05;25.95;;;;;;;;;;5046938;28;20049;-63
2022/11/28 06:33:21;;;;;;;65.60;27.77;;;;;;;;;;5038953;28;20040;-63
2022/11/28 06:35:47;;;;;;;62.17;26.40;;;;;;;;;;5040337;28;20071;-63
2022/11/28 06:38:13;;;;;;;60.33;25.70;;;;;;;;;;5037389;28;20029;-63
2022/11/28 06:40:39;;;;;;;55.80;25.27;;;;;;;;;;5035813;28;20033;-62
2022/11/28 06:43:05;;;;;;;62.85;26.27;;;;;;;;;;5050533;28;20435;-61
2022/11/28 06:45:35;;;;;;;66.93;27.98;;;;;;;;;;5037876;28;20451;-64
2022/11/28 06:48:01;;;;;;;65.93;28.15;;;;;;;;;;5038396;28;20026;-66
2022/11/28 06:50:27;;;;;;;55.38;24.33;;;;;;;;;;5038424;28;20103;-64
2022/11/28 06:52:54;;;;;;;54.30;24.00;;;;;;;;;;5033018;28;20040;-63
2022/11/28 06:55:20;;;;;;;49.97;23.55;;;;;;;;;;5036056;28;20025;-63
2022/11/28 06:57:46;;;;;;;49.08;21.27;;;;;;;;;;5038401;28;20059;-63
2022/11/28 07:00:12;;;;;;;55.00;23.27;;;;;;;;;;5038452;28;20087;-63
2022/11/28 07:02:38;;;;;;;52.58;22.90;;;;;;;;;;5039083;28;20101;-64
2022/11/28 07:05:05;;;;;;;52.80;23.20;;;;;;;;;;5044392;28;20033;-63
2022/11/28 07:07:31;;;;;;;48.65;22.60;;;;;;;;;;5037389;28;20503;-64
2022/11/28 07:09:57;;;;;;;52.08;23.52;;;;;;;;;;5031335;28;20030;-63
2022/11/28 07:12:23;;;;;;;52.38;23.55;;;;;;;;;;5051433;28;20028;-63
2022/11/28 07:14:49;;;;;;;54.78;24.25;;;;;;;;;;5054265;28;20032;-63
2022/11/28 07:17:15;;;;;;;65.07;28.30;;;;;;;;;;5054113;28;20036;-62
2022/11/28 07:19:41;;;;;;;53.80;24.17;;;;;;;;;;5053752;28;20029;-63
2022/11/28 07:22:08;;;;;;;53.20;24.65;;;;;;;;;;5053629;28;20029;-63
2022/11/28 07:24:35;;;;;;;62.70;28.58;;;;;;;;;;5047645;28;20071;-64
2022/11/28 07:27:01;;;;;;;75.22;30.63;;;;;;;;;;5046896;28;20476;-64
2022/11/28 07:29:34;;;;;;;78.53;33.45;;;;;;;;;;5045781;28;20025;-63
2022/11/28 07:32:00;;;;;;;68.25;29.88;;;;;;;;;;5049810;28;20711;-63
2022/11/28 07:34:26;;;;;;;60.38;28.75;;;;;;;;;;5044436;28;20028;-67
2022/11/28 07:36:52;;;;;;;54.92;25.17;;;;;;;;;;5045906;28;20064;-65
2022/11/28 07:39:18;;;;;;;56.83;25.67;;;;;;;;;;5053387;28;20019;-63
2022/11/28 07:41:44;;;;;;;59.58;28.85;;;;;;;;;;5053584;28;20029;-64
2022/11/28 07:44:11;;;;;;;67.90;29.30;;;;;;;;;;5053640;28;20029;-66
2022/11/28 07:46:38;;;;;;;69.75;30.55;;;;;;;;;;5053500;28;20021;-63
2022/11/28 07:49:04;;;;;;;75.63;36.97;;;;;;;;;;5053401;28;20031;-62
2022/11/28 07:51:32;;;;;;;66.05;31.60;;;;;;;;;;5052943;28;20447;-67
2022/11/28 07:53:58;;;;;;;77.00;30.88;;;;;;;;;;5053721;28;20053;-70
2022/11/28 07:56:25;;;;;;;65.22;29.63;;;;;;;;;;5053627;28;20036;-67
2022/11/28 07:58:52;;;;;;;70.65;32.08;;;;;;;;;;5053416;28;20502;-63
2022/11/28 08:01:19;;;;;;;64.55;29.27;;;;;;;;;;5053309;28;20473;-63
2022/11/28 08:03:45;;;;;;;56.92;27.77;;;;;;;;;;5053026;28;20096;-65
2022/11/28 08:06:12;;;;;;;63.72;29.13;;;;;;;;;;5046032;28;20032;-64
2022/11/28 08:08:38;;;;;;;64.05;29.25;;;;;;;;;;5040967;28;20551;-67
2022/11/28 08:11:06;;;;;;;60.53;27.73;;;;;;;;;;5051651;28;20033;-63
2022/11/28 08:13:32;;;;;;;61.70;29.77;;;;;;;;;;5041095;28;20042;-65
2022/11/28 08:15:58;;;;;;;54.92;25.92;;;;;;;;;;5041425;28;20053;-61
2022/11/28 08:18:24;;;;;;;54.92;25.55;;;;;;;;;;5042403;28;20025;-64
2022/11/28 08:20:50;;;;;;;54.17;26.00;;;;;;;;;;5041320;28;20033;-62
2022/11/28 08:23:16;;;;;;;49.45;24.17;;;;;;;;;;5039256;28;20025;-62
2022/11/28 08:25:42;;;;;;;52.92;24.00;;;;;;;;;;5052862;28;20142;-61
2022/11/28 08:28:08;;;;;;;51.67;24.48;;;;;;;;;;5043712;28;20575;-62
2022/11/28 08:30:34;;;;;;;55.33;26.05;;;;;;;;;;5033615;28;20044;-64
2022/11/28 08:33:00;;;;;;;49.20;24.67;;;;;;;;;;5052919;28;20377;-66
2022/11/28 08:35:26;;;;;;;51.70;24.58;;;;;;;;;;5053004;28;20028;-66
2022/11/28 08:37:52;;;;;;;49.00;24.55;;;;;;;;;;5052663;28;20025;-62
2022/11/28 08:40:18;;;;;;;48.10;24.27;;;;;;;;;;5046348;28;20027;-68
2022/11/28 08:42:44;;;;;;;50.38;24.10;;;;;;;;;;5035412;28;20037;-62
2022/11/28 08:45:11;;;;;;;53.05;24.35;;;;;;;;;;5037528;28;20021;-62
2022/11/28 08:47:37;;;;;;;46.63;23.25;;;;;;;;;;5039166;28;20052;-62
2022/11/28 08:50:03;;;;;;;44.60;22.05;;;;;;;;;;5032150;28;20061;-61
2022/11/28 08:52:29;;;;;;;49.25;24.10;;;;;;;;;;5032291;28;20022;-61
2022/11/28 08:54:55;;;;;;;46.47;22.88;;;;;;;;;;5032783;28;20022;-63
2022/11/28 08:57:21;;;;;;;46.15;23.13;;;;;;;;;;5032367;28;20033;-63
2022/11/28 08:59:47;;;;;;;51.42;23.42;;;;;;;;;;5032261;28;20505;-62
2022/11/28 09:02:13;;;;;;;45.53;22.58;;;;;;;;;;5032483;28;20044;-61
2022/11/28 09:04:39;;;;;;;44.80;22.17;;;;;;;;;;5032410;28;20026;-62
2022/11/28 09:07:05;;;;;;;48.03;23.95;;;;;;;;;;5032197;28;20025;-66
2022/11/28 09:09:31;;;;;;;45.67;23.30;;;;;;;;;;5032670;28;20382;-69
2022/11/28 09:11:57;;;;;;;51.50;23.85;;;;;;;;;;5032221;28;20041;-64
2022/11/28 09:14:25;;;;;;;46.13;23.80;;;;;;;;;;5032339;28;20021;-61
2022/11/28 09:16:51;;;;;;;46.13;23.20;;;;;;;;;;5032578;28;20026;-61
2022/11/28 09:19:17;;;;;;;46.05;23.15;;;;;;;;;;5045451;28;20087;-67
2022/11/28 09:21:43;;;;;;;47.53;23.88;;;;;;;;;;5051849;28;20516;-67
2022/11/28 09:24:12;;;;;;;45.15;23.30;;;;;;;;;;5051765;28;20370;-69
2022/11/28 09:26:38;;;;;;;45.63;22.63;;;;;;;;;;5051767;28;20025;-65
2022/11/28 09:29:04;;;;;;;44.25;22.88;;;;;;;;;;5051886;28;20063;-64
2022/11/28 09:31:30;;;;;;;51.15;25.33;;;;;;;;;;5051714;28;20056;-62
2022/11/28 09:33:56;;;;;;;57.58;29.38;;;;;;;;;;5051457;28;20025;-60
2022/11/28 09:36:23;;;;;;;75.68;37.28;;;;;;;;;;5050904;28;20116;-61
2022/11/28 09:38:50;;;;;;;68.43;33.78;;;;;;;;;;5051415;28;20020;-61
2022/11/28 09:41:35;;;;;;;52.25;26.73;;;;;;;;;;5051452;28;20086;-61
2022/11/28 09:44:07;;;;;;;47.13;24.35;;;;;;;;;;5051544;28;20036;-60
2022/11/28 09:46:35;;;;;;;54.33;25.55;;;;;;;;;;5051612;28;20123;-61
2022/11/28 09:49:02;;;;;;;68.30;32.70;;;;;;;;;;5049317;28;20028;-61
2022/11/28 09:51:28;;;;;;;43.65;21.70;;;;;;;;;;5050946;28;20063;-61
2022/11/28 09:53:54;;;;;;;68.03;32.65;;;;;;;;;;5050981;28;20531;-59
2022/11/28 09:56:21;;;;;;;73.72;35.38;;;;;;;;;;5051357;28;20029;-62
2022/11/28 09:58:56;;;;;;;46.42;24.30;;;;;;;;;;5050959;28;20021;-60
2022/11/28 10:01:25;;;;;;;48.22;23.58;;;;;;;;;;5050880;28;20029;-69
2022/11/28 10:04:02;;;;;;;47.60;24.13;;;;;;;;;;5050997;28;20041;-63
2022/11/28 10:06:37;;;;;;;45.88;22.13;;;;;;;;;;5051223;28;20392;-62
2022/11/28 10:09:36;;;;;;;44.15;22.17;;;;;;;;;;5050815;28;20033;-60
2022/11/28 10:12:02;;;;;;;38.97;20.48;;;;;;;;;;5038853;28;20147;-60
2022/11/28 10:14:48;;;;;;;42.25;20.58;;;;;;;;;;5036584;28;20029;-60
2022/11/28 10:17:20;;;;;;;44.85;20.40;;;;;;;;;;5033178;28;20037;-62
2022/11/28 10:19:52;;;;;;;40.65;20.83;;;;;;;;;;5028532;28;20038;-61
2022/11/28 10:22:21;;;;;;;45.00;21.15;;;;;;;;;;5028496;28;20048;-66
2022/11/28 10:24:47;;;;;;;37.20;20.98;;;;;;;;;;5028632;28;20508;-62
2022/11/28 10:27:15;;;;;;;37.42;19.67;;;;;;;;;;5027994;28;20038;-62
2022/11/28 10:29:49;;;;;;;39.30;19.88;;;;;;;;;;5028427;28;20059;-62
2022/11/28 10:32:20;;;;;;;37.70;19.15;;;;;;;;;;5028331;28;20105;-62
2022/11/28 10:35:01;;;;;;;39.95;19.00;;;;;;;;;;5033333;28;20032;-62
2022/11/28 10:37:30;;;;;;;37.58;18.33;;;;;;;;;;5023498;28;20518;-61
2022/11/28 10:40:02;;;;;;;32.78;17.48;;;;;;;;;;5036287;28;20036;-64
2022/11/28 10:42:38;;;;;;;34.63;18.35;;;;;;;;;;5045654;28;20053;-63
2022/11/28 10:45:18;;;;;;;34.67;19.08;;;;;;;;;;5047756;28;20435;-61
2022/11/28 10:47:44;;;;;;;34.22;18.90;;;;;;;;;;5041942;28;20163;-65
2022/11/28 10:50:29;;;;;;;31.20;17.05;;;;;;;;;;5036422;28;20132;-62
2022/11/28 10:53:00;;;;;;;30.88;16.75;;;;;;;;;;5043869;28;20025;-63
2022/11/28 10:55:42;;;;;;;34.97;17.23;;;;;;;;;;5050046;28;20097;-64
2022/11/28 10:58:17;;;;;;;35.95;18.08;;;;;;;;;;5050575;28;20025;-62
2022/11/28 11:00:47;;;;;;;30.40;15.52;;;;;;;;;;5050555;28;20526;-64
2022/11/28 11:03:16;;;;;;;30.63;16.42;;;;;;;;;;5049936;28;20476;-62
2022/11/28 11:05:42;;;;;;;36.60;18.40;;;;;;;;;;5050378;28;20017;-62
2022/11/28 11:08:08;;;;;;;36.08;17.90;;;;;;;;;;5049516;28;20025;-65
2022/11/28 11:10:40;;;;;;;37.20;18.65;;;;;;;;;;5049838;28;20044;-62
2022/11/28 11:13:18;;;;;;;39.22;18.90;;;;;;;;;;5049600;28;20032;-63
2022/11/28 11:15:44;;;;;;;33.75;17.30;;;;;;;;;;5049213;28;20025;-63
2022/11/28 11:18:27;;;;;;;30.75;16.60;;;;;;;;;;5048590;28;20016;-63
2022/11/28 11:21:12;;;;;;;24.13;13.50;;;;;;;;;;5048383;28;20052;-61
2022/11/28 11:23:38;;;;;;;21.70;11.85;;;;;;;;;;5049281;28;20037;-63
2022/11/28 11:26:08;;;;;;;24.83;12.95;;;;;;;;;;5048637;28;20033;-63
2022/11/28 11:28:42;;;;;;;49.70;23.00;;;;;;;;;;5049451;28;20021;-63
2022/11/28 11:31:20;;;;;;;52.50;23.20;;;;;;;;;;5048969;28;20392;-61
2022/11/28 11:33:47;;;;;;;35.05;17.55;;;;;;;;;;5049618;28;20039;-63
2022/11/28 11:36:39;;;;;;;31.83;14.73;;;;;;;;;;5049565;28;20018;-62
2022/11/28 11:39:14;;;;;;;25.42;13.45;;;;;;;;;;5049275;28;20091;-63
2022/11/28 11:41:47;;;;;;;66.55;24.80;;;;;;;;;;5044384;28;20025;-63
2022/11/28 11:44:13;;;;;;;22.52;12.63;;;;;;;;;;5046737;28;20025;-59
2022/11/28 11:46:56;;;;;;;27.42;13.80;;;;;;;;;;5049509;28;20424;-59
2022/11/28 11:49:32;;;;;;;24.10;13.23;;;;;;;;;;5050054;28;20031;-59
2022/11/28 11:52:02;;;;;;;25.63;15.23;;;;;;;;;;5049083;28;20060;-58
2022/11/28 11:54:28;;;;;;;24.90;13.27;;;;;;;;;;5049554;28;20033;-59
2022/11/28 11:56:55;;;;;;;21.52;12.63;;;;;;;;;;5049307;28;20069;-62
2022/11/28 11:59:24;;;;;;;23.80;13.70;;;;;;;;;;5052117;28;20075;-59
2022/11/28 12:01:52;;;;;;;24.67;11.77;;;;;;;;;;5053068;28;20028;-59
2022/11/28 12:04:27;;;;;;;23.45;12.05;;;;;;;;;;5053325;28;20104;-59
2022/11/28 12:06:54;;;;;;;22.83;12.95;;;;;;;;;;5053346;28;20392;-59
2022/11/28 12:09:34;;;;;;;18.55;10.55;;;;;;;;;;5052998;28;20453;-59
2022/11/28 12:12:21;;;;;;;18.08;10.35;;;;;;;;;;5053359;28;20077;-59
2022/11/28 12:14:49;;;;;;;19.92;11.48;;;;;;;;;;5052903;28;20028;-59
2022/11/28 12:17:15;;;;;;;21.02;11.70;;;;;;;;;;5042155;28;20063;-60
2022/11/28 12:19:53;;;;;;;22.15;12.48;;;;;;;;;;5042851;28;20084;-59
2022/11/28 12:22:38;;;;;;;22.83;11.82;;;;;;;;;;5042864;28;20354;-59
2022/11/28 12:25:25;;;;;;;20.10;11.48;;;;;;;;;;5042688;28;20017;-59
2022/11/28 12:28:10;;;;;;;21.98;12.95;;;;;;;;;;5043911;28;20029;-60
2022/11/28 12:30:36;;;;;;;21.67;12.23;;;;;;;;;;5042527;28;20032;-59
2022/11/28 12:33:16;;;;;;;29.27;13.23;;;;;;;;;;5051562;28;20148;-59
2022/11/28 12:35:43;;;;;;;21.92;11.82;;;;;;;;;;5052941;28;20029;-59
2022/11/28 12:38:19;;;;;;;22.63;13.30;;;;;;;;;;5052380;28;20033;-59
2022/11/28 12:40:54;;;;;;;21.75;12.70;;;;;;;;;;5052302;28;20107;-59
2022/11/28 12:43:46;;;;;;;25.75;12.35;;;;;;;;;;5052414;28;20025;-59
2022/11/28 12:46:23;;;;;;;24.92;13.02;;;;;;;;;;5052863;28;20029;-59
2022/11/28 12:48:49;;;;;;;55.50;22.20;;;;;;;;;;5052829;28;20021;-58
2022/11/28 12:51:14;;;;;;;27.55;14.43;;;;;;;;;;5052419;28;20102;-58
2022/11/28 12:53:46;;;;;;;22.08;12.48;;;;;;;;;;5052732;28;20046;-58
2022/11/28 12:56:21;;;;;;;26.47;11.13;;;;;;;;;;5052966;28;20510;-59
2022/11/28 12:59:12;;;;;;;26.33;14.80;;;;;;;;;;5051895;28;20284;-58
2022/11/28 13:01:38;;;;;;;25.15;13.85;;;;;;;;;;5045791;28;20029;-58
2022/11/28 13:04:23;;;;;;;30.38;15.75;;;;;;;;;;5041372;28;20021;-58
2022/11/28 13:07:01;;;;;;;30.27;15.93;;;;;;;;;;5041339;28;20425;-59
2022/11/28 13:09:30;;;;;;;30.17;15.63;;;;;;;;;;5040749;28;20021;-58
2022/11/28 13:12:02;;;;;;;29.13;15.80;;;;;;;;;;5039983;28;20037;-59
2022/11/28 13:14:28;;;;;;;22.52;12.63;;;;;;;;;;5041389;28;20025;-58
2022/11/28 13:16:56;;;;;;;34.33;18.48;;;;;;;;;;5041970;28;20033;-58
2022/11/28 13:19:28;;;;;;;38.72;18.90;;;;;;;;;;5041443;28;20951;-59
2022/11/28 13:21:58;;;;;;;37.88;19.08;;;;;;;;;;5052451;28;20480;-59
2022/11/28 13:24:43;;;;;;;33.72;18.85;;;;;;;;;;5051446;28;20021;-58
2022/11/28 13:27:35;;;;;;;35.20;18.30;;;;;;;;;;5051791;28;20110;-59
2022/11/28 13:30:01;;;;;;;36.77;17.33;;;;;;;;;;5052176;28;20108;-59
2022/11/28 13:32:36;;;;;;;32.13;16.83;;;;;;;;;;5051851;28;20424;-59
2022/11/28 13:35:03;;;;;;;31.75;17.00;;;;;;;;;;5051958;28;20028;-59
2022/11/28 13:37:37;;;;;;;35.20;18.00;;;;;;;;;;5050381;28;20108;-59
2022/11/28 13:40:19;;;;;;;31.20;16.15;;;;;;;;;;5052045;28;20029;-59
2022/11/28 13:42:59;;;;;;;28.33;15.63;;;;;;;;;;5051570;28;20112;-60
2022/11/28 13:45:31;;;;;;;26.85;14.52;;;;;;;;;;5051255;28;20522;-59
2022/11/28 13:47:57;;;;;;;23.92;13.05;;;;;;;;;;5051011;28;20059;-63
2022/11/28 13:50:23;;;;;;;28.90;14.93;;;;;;;;;;5051244;28;20052;-58
2022/11/28 13:53:15;;;;;;;29.38;15.80;;;;;;;;;;5050007;28;20041;-59
2022/11/28 13:55:45;;;;;;;26.63;15.32;;;;;;;;;;5050997;28;20504;-58
2022/11/28 13:58:30;;;;;;;32.85;16.83;;;;;;;;;;5051813;28;20175;-58
2022/11/28 14:01:10;;;;;;;30.63;16.17;;;;;;;;;;5051344;28;20090;-58
2022/11/28 14:04:02;;;;;;;25.48;13.38;;;;;;;;;;5051102;28;20033;-59
2022/11/28 14:06:40;;;;;;;24.92;13.93;;;;;;;;;;5050247;28;20094;-59
2022/11/28 14:09:06;;;;;;;27.48;14.35;;;;;;;;;;5050535;28;20057;-57
2022/11/28 14:11:51;;;;;;;27.63;14.70;;;;;;;;;;5050951;28;20037;-63
2022/11/28 14:14:17;;;;;;;28.02;15.43;;;;;;;;;;5051060;28;20111;-57
2022/11/28 14:17:02;;;;;;;30.58;16.30;;;;;;;;;;5051105;28;20025;-60
2022/11/28 14:19:31;;;;;;;28.85;15.70;;;;;;;;;;5050320;28;20025;-59
2022/11/28 14:22:20;;;;;;;30.95;17.08;;;;;;;;;;5050078;28;20039;-58
2022/11/28 14:25:02;;;;;;;31.38;15.40;;;;;;;;;;5048226;28;20121;-58
2022/11/28 14:27:32;;;;;;;27.80;13.07;;;;;;;;;;5047764;28;20106;-58
2022/11/28 14:29:59;;;;;;;36.35;18.08;;;;;;;;;;5048394;28;20057;-58
2022/11/28 14:32:40;;;;;;;34.78;17.55;;;;;;;;;;5047917;28;20044;-59